Glen Ridge, Florida
Current Conditions -  °F | °C
As of 2:53 AM on Sunday 26 Oct 2014 (Local Time) from KPBI Reporting Station
Scattered Clouds Scattered Clouds  
Wind Chill: 68°   Ceiling: Unl
Heat Index: 68°   Visibility: 10mi
Dew Point: 65°   Wind: 7mph
Humidity: 90%   Direction: 320°NW
Pressure: 29.91"   Gusts: NA
Location:  26.6662°N, 80.0908°W
Report Text: KPBI 260653Z 32006KT 10SM SCT040 SCT049 20/18 A2991 RMK AO2 SLP126 T02000183
Loading
Personal Weather Stations






























Interactive Weather Map
Tropical Storm Tracking
New forecast layout! Learn more

10-Day Weather Forecast

Advertisements
Track Severe Weather on mobile